Time;durP1;ratioP1;P1;durP2;ratioP2;P2;SDS_P1;SDS_P2;PMS_P1;PMS_P2;Temp;Humidity;BMP_temperature;BMP_pressure;BME280_temperature;BME280_humidity;BME280_pressure;Samples;Min_cycle;Max_cycle;Signal;HPM_P1;HPM_P2
2022/01/21 00:00:45;;;;;;;6.20;3.60;;;;;;;-2.01;73.36;99808.67;87721;1282;93016;-62
2022/01/21 00:02:57;;;;;;;8.90;3.90;;;;;;;-2.07;73.25;99810.88;87705;1282;78230;-72
2022/01/21 00:05:07;;;;;;;6.90;3.40;;;;;;;-2.11;73.27;99812.16;87727;1282;79751;-72
2022/01/21 00:07:13;;;;;;;6.10;3.50;;;;;;;-2.14;73.27;99818.52;87718;1282;100774;-63
2022/01/21 00:09:18;;;;;;;8.80;3.70;;;;;;;-2.17;73.17;99820.52;87701;1282;89506;-62
2022/01/21 00:11:30;;;;;;;8.00;3.90;;;;;;;-2.19;73.05;99822.31;87674;1282;96112;-62
2022/01/21 00:13:37;;;;;;;11.10;3.60;;;;;;;-2.22;73.09;99832.45;87688;1282;79645;-62
2022/01/21 00:15:43;;;;;;;6.40;2.80;;;;;;;-2.24;73.20;99829.66;87625;1282;83092;-66
2022/01/21 00:17:52;;;;;;;7.90;3.10;;;;;;;-2.27;73.22;99837.58;87727;1282;100928;-61
2022/01/21 00:32:08;;;;;;;11.50;4.70;;;;;;;-2.20;73.47;99859.56;87587;1282;87665;-71
2022/01/21 00:34:13;;;;;;;8.60;3.80;;;;;;;-2.13;73.44;99857.30;87728;1282;96281;-72
2022/01/21 00:36:22;;;;;;;6.70;2.70;;;;;;;-2.05;73.53;99852.93;87727;1282;78374;-72
2022/01/21 00:38:31;;;;;;;9.70;3.30;;;;;;;-1.96;73.35;99853.43;87686;1282;83596;-63
2022/01/21 00:40:38;;;;;;;8.30;4.20;;;;;;;-1.91;73.42;99858.98;87730;1282;99609;-63
2022/01/21 00:43:08;;;;;;;8.50;4.20;;;;;;;-1.90;73.35;99864.38;87769;1282;86567;-72
2022/01/21 00:45:19;;;;;;;8.60;4.10;;;;;;;-1.93;72.88;99854.75;87733;1282;95416;-72
2022/01/21 00:47:24;;;;;;;9.40;4.20;;;;;;;-1.98;72.90;99857.13;87741;1282;78369;-63
2022/01/21 00:49:30;;;;;;;8.50;3.80;;;;;;;-2.00;72.84;99852.00;87750;1282;81470;-64
2022/01/21 00:51:36;;;;;;;11.20;4.40;;;;;;;-2.05;72.76;99856.66;87739;1282;98937;-63
2022/01/21 00:53:45;;;;;;;11.30;4.90;;;;;;;-2.09;72.92;99862.05;87759;1282;87275;-72
2022/01/21 00:55:51;;;;;;;7.50;3.20;;;;;;;-2.14;72.76;99854.17;87759;1282;94012;-72
2022/01/21 00:57:56;;;;;;;10.80;4.00;;;;;;;-2.20;72.69;99858.86;87712;1282;78389;-63
2022/01/21 01:00:03;;;;;;;11.80;4.90;;;;;;;-2.25;72.55;99857.73;87739;1282;80367;-63
2022/01/21 01:02:09;;;;;;;12.10;4.90;;;;;;;-2.30;72.61;99857.77;87619;1282;97622;-63
2022/01/21 01:04:15;;;;;;;6.90;3.10;;;;;;;-2.35;72.46;99850.39;87740;1282;89390;-64
2022/01/21 01:06:24;;;;;;;7.40;3.40;;;;;;;-2.36;72.70;99851.04;87743;1282;94415;-68
2022/01/21 01:08:29;;;;;;;9.00;4.20;;;;;;;-2.42;72.38;99850.06;87718;1282;81053;-72
2022/01/21 01:10:47;;;;;;;8.50;4.20;;;;;;;-2.45;72.45;99854.92;87586;1284;81591;-71
2022/01/21 01:19:50;;;;;;;11.00;4.30;;;;;;;-2.49;72.53;99858.52;87747;1282;100832;-71
2022/01/21 01:20:15;;;;;;;13.90;4.70;;;;;;;-2.51;72.66;99852.24;87695;1282;78514;-64
2022/01/21 01:22:24;;;;;;;14.10;5.40;;;;;;;-2.50;72.49;99852.88;87715;1282;80493;-73
2022/01/21 01:29:19;;;;;;;24.20;8.90;;;;;;;-2.41;72.50;99851.71;87726;1282;93396;-64
2022/01/21 01:31:25;;;;;;;17.30;7.70;;;;;;;-2.34;72.29;99856.33;87724;1282;81867;-65
2022/01/21 01:33:36;;;;;;;11.60;5.50;;;;;;;-2.29;72.60;99854.02;87736;1282;81575;-72
2022/01/21 01:35:42;;;;;;;8.80;4.10;;;;;;;-2.19;72.55;99856.67;87716;1282;98557;-73
2022/01/21 01:38:14;;;;;;;6.80;3.50;;;;;;;-2.11;72.69;99845.98;87735;1282;87957;-64
2022/01/21 01:40:26;;;;;;;10.80;3.10;;;;;;;-2.07;72.38;99843.70;87722;1282;93655;-66
2022/01/21 01:42:58;;;;;;;11.50;6.20;;;;;;;-2.05;72.38;99842.31;87747;1282;76968;-64
2022/01/21 01:50:07;;;;;;;;;;;;;;;-2.06;72.28;99839.77;87616;1284;88621;-72
2022/01/21 01:52:17;;;;;;;20.40;7.90;;;;;;;-2.06;72.34;99838.21;87659;1282;95431;-63
2022/01/21 01:54:28;;;;;;;13.90;5.50;;;;;;;-2.07;71.66;99839.02;87767;1282;79428;-61
2022/01/21 01:56:44;;;;;;;13.50;4.90;;;;;;;-2.09;72.16;99837.20;87767;1282;83935;-63
2022/01/21 01:58:50;;;;;;;15.90;6.40;;;;;;;-2.10;71.90;99834.45;87735;1282;101515;-64
2022/01/21 02:00:56;;;;;;;8.90;4.10;;;;;;;-2.09;71.91;99840.20;87760;1282;88183;-64
2022/01/21 02:03:11;;;;;;;10.20;4.50;;;;;;;-2.09;72.13;99836.83;87732;1282;95517;-72
2022/01/21 02:05:17;;;;;;;7.00;3.50;;;;;;;-2.09;71.82;99835.13;87767;1282;79189;-72
2022/01/21 02:07:23;;;;;;;7.10;3.50;;;;;;;-2.10;71.80;99837.30;87742;1282;80271;-72
2022/01/21 02:09:33;;;;;;;7.10;3.30;;;;;;;-2.11;71.70;99832.92;87585;1282;100803;-70
2022/01/21 02:11:39;;;;;;;7.50;3.80;;;;;;;-2.10;71.98;99833.73;87756;1282;89186;-72
2022/01/21 02:13:55;;;;;;;5.70;2.30;;;;;;;-2.11;71.73;99830.48;87771;1282;95461;-71
2022/01/21 02:16:13;;;;;;;7.30;3.10;;;;;;;-2.11;71.88;99829.63;87534;1284;77977;-63
2022/01/21 02:23:07;;;;;;;6.40;2.90;;;;;;;-2.13;71.90;99831.71;87765;1282;89202;-61
2022/01/21 02:25:18;;;;;;;5.90;2.40;;;;;;;-2.14;71.78;99825.31;87743;1282;94075;-62
2022/01/21 02:27:25;;;;;;;5.00;2.00;;;;;;;-2.17;71.85;99818.08;87776;1282;78410;-62
2022/01/21 02:29:38;;;;;;;5.70;2.20;;;;;;;-2.23;71.84;99821.55;87773;1282;83625;-63
2022/01/21 02:31:44;;;;;;;5.00;2.30;;;;;;;-2.29;71.55;99821.20;87738;1281;101060;-72
2022/01/21 02:33:52;;;;;;;5.40;2.80;;;;;;;-2.36;71.57;99828.13;87741;1282;86969;-71
2022/01/21 02:36:01;;;;;;;4.90;2.00;;;;;;;-2.43;71.83;99820.02;87739;1282;95088;-70
2022/01/21 02:38:07;;;;;;;3.50;1.60;;;;;;;-2.47;71.70;99822.45;87721;1282;82417;-63
2022/01/21 02:40:16;;;;;;;5.70;1.90;;;;;;;-2.49;71.86;99831.25;87764;1282;82353;-62
2022/01/21 02:42:25;;;;;;;5.10;1.90;;;;;;;-2.47;72.07;99838.46;87754;1282;100176;-63
2022/01/21 02:44:31;;;;;;;5.30;1.90;;;;;;;-2.42;72.32;99839.48;87751;1282;88824;-63
2022/01/21 02:46:40;;;;;;;4.00;1.60;;;;;;;-2.35;72.09;99844.93;87769;1282;94226;-63
2022/01/21 02:48:49;;;;;;;4.30;1.60;;;;;;;-2.29;72.25;99842.88;87722;1282;77151;-72
2022/01/21 02:50:55;;;;;;;4.30;1.70;;;;;;;-2.24;72.46;99840.55;87746;1282;82311;-70
2022/01/21 02:53:09;;;;;;;4.80;2.00;;;;;;;-2.22;72.55;99835.39;87758;1282;100640;-72
2022/01/21 02:55:15;;;;;;;4.90;2.50;;;;;;;-2.23;72.38;99840.25;87743;1282;89249;-71
2022/01/21 02:57:23;;;;;;;5.80;2.60;;;;;;;-2.27;72.19;99840.25;87544;1284;95616;-63
2022/01/21 02:59:30;;;;;;;4.30;1.70;;;;;;;-2.32;72.16;99840.48;87750;1282;77071;-63
2022/01/21 03:01:37;;;;;;;3.90;2.00;;;;;;;-2.37;72.06;99838.39;87755;1282;81817;-60
2022/01/21 03:03:46;;;;;;;3.00;1.80;;;;;;;-2.43;72.18;99839.56;87779;1282;100616;-63
2022/01/21 03:05:52;;;;;;;5.00;1.70;;;;;;;-2.47;72.05;99852.63;87755;1282;87109;-62
2022/01/21 03:07:58;;;;;;;5.80;2.10;;;;;;;-2.54;72.19;99849.27;87731;1282;95081;-70
2022/01/21 03:10:06;;;;;;;3.10;1.70;;;;;;;-2.58;72.29;99843.59;87598;1284;79056;-71
2022/01/21 03:12:13;;;;;;;4.70;1.80;;;;;;;-2.61;72.15;99842.41;87602;1284;80968;-64
2022/01/21 03:14:21;;;;;;;4.20;1.90;;;;;;;-2.61;72.21;99841.25;87584;1284;97824;-62
2022/01/21 03:16:28;;;;;;;4.80;1.60;;;;;;;-2.61;72.39;99838.40;87589;1284;88109;-62
2022/01/21 03:18:34;;;;;;;5.10;1.80;;;;;;;-2.61;72.33;99835.23;87671;1282;93062;-63
2022/01/21 03:20:40;;;;;;;4.10;2.10;;;;;;;-2.65;72.44;99834.48;87739;1282;78478;-62
2022/01/21 03:22:49;;;;;;;5.30;1.80;;;;;;;-2.70;72.53;99830.98;87772;1282;79898;-73
2022/01/21 03:24:55;;;;;;;6.40;2.70;;;;;;;-2.75;72.46;99839.48;87737;1282;100220;-73
2022/01/21 03:27:01;;;;;;;4.70;1.50;;;;;;;-2.78;72.69;99835.72;87756;1282;87847;-63
2022/01/21 03:29:07;;;;;;;6.30;1.70;;;;;;;-2.80;72.80;99829.54;87735;1282;95510;-62
2022/01/21 03:31:14;;;;;;;4.60;1.40;;;;;;;-2.81;72.73;99830.44;87556;1284;79927;-61
2022/01/21 03:33:20;;;;;;;4.10;1.90;;;;;;;-2.77;72.83;99842.96;87745;1282;82475;-62
2022/01/21 03:35:26;;;;;;;5.70;2.10;;;;;;;-2.68;73.23;99848.42;87586;1284;100129;-61
2022/01/21 03:37:32;;;;;;;6.10;2.40;;;;;;;-2.54;73.02;99849.99;87774;1282;89527;-71
2022/01/21 03:39:40;;;;;;;5.30;2.20;;;;;;;-2.43;73.43;99852.27;87742;1282;96128;-71
2022/01/21 03:41:52;;;;;;;7.60;2.40;;;;;;;-2.31;73.50;99848.85;87762;1282;79260;-71
2022/01/21 03:44:01;;;;;;;9.10;2.60;;;;;;;-2.22;73.34;99845.83;87816;1282;79859;-71
2022/01/21 03:46:07;;;;;;;6.50;2.70;;;;;;;-2.16;73.34;99851.50;87764;1282;101086;-72
2022/01/21 03:48:13;;;;;;;5.10;2.90;;;;;;;-2.12;73.32;99851.67;87604;1282;89209;-71
2022/01/21 03:50:23;;;;;;;7.20;3.20;;;;;;;-2.09;73.27;99857.52;87751;1282;93133;-72
2022/01/21 03:52:28;;;;;;;6.10;2.30;;;;;;;-2.11;73.17;99852.14;87743;1282;79087;-62
2022/01/21 03:54:35;;;;;;;4.90;1.70;;;;;;;-2.11;73.24;99843.89;87776;1282;82458;-63
2022/01/21 03:56:44;;;;;;;5.10;1.90;;;;;;;-2.14;73.15;99837.83;87782;1282;99762;-64
2022/01/21 03:58:53;;;;;;;5.80;2.40;;;;;;;-2.16;73.07;99842.14;87751;1282;87853;-72
2022/01/21 04:01:02;;;;;;;4.90;2.20;;;;;;;-2.21;72.95;99846.81;87743;1282;94449;-73
2022/01/21 04:03:09;;;;;;;3.70;2.00;;;;;;;-2.23;73.10;99845.41;87517;1282;330207;-74
2022/01/21 04:05:19;;;;;;;5.60;2.10;;;;;;;-2.24;73.24;99849.52;87759;1282;82746;-72
2022/01/21 04:07:24;;;;;;;5.80;2.70;;;;;;;-2.25;73.21;99858.45;87802;1282;99830;-71
2022/01/21 04:09:30;;;;;;;4.10;2.00;;;;;;;-2.25;73.44;99858.95;87747;1282;88895;-71
2022/01/21 04:11:36;;;;;;;6.70;3.20;;;;;;;-2.24;73.48;99856.42;87739;1282;92396;-71
2022/01/21 04:13:46;;;;;;;6.10;2.00;;;;;;;-2.22;73.50;99865.55;87721;1282;80685;-62
2022/01/21 04:15:57;;;;;;;6.20;2.40;;;;;;;-2.16;73.60;99861.95;87746;1282;80543;-62
2022/01/21 04:18:06;;;;;;;3.40;1.90;;;;;;;-2.10;73.73;99863.56;87723;1282;101154;-63
2022/01/21 04:20:16;;;;;;;7.30;2.90;;;;;;;-2.02;73.83;99860.11;87745;1282;88654;-65
2022/01/21 04:22:22;;;;;;;7.90;3.30;;;;;;;-1.94;73.85;99861.21;87737;1282;94966;-61
2022/01/21 04:24:28;;;;;;;5.70;2.80;;;;;;;-1.84;73.66;99866.21;87741;1282;77560;-62
2022/01/21 04:26:34;;;;;;;5.70;2.20;;;;;;;-1.78;73.63;99860.23;87754;1282;82693;-62
2022/01/21 04:28:40;;;;;;;5.20;2.00;;;;;;;-1.73;73.71;99865.55;87711;1282;100446;-72
2022/01/21 04:30:46;;;;;;;5.30;3.00;;;;;;;-1.73;73.65;99865.67;87753;1282;89530;-74
2022/01/21 04:32:51;;;;;;;6.20;2.50;;;;;;;-1.72;73.57;99863.81;87754;1282;94709;-62
2022/01/21 04:34:57;;;;;;;7.60;3.00;;;;;;;-1.72;73.42;99875.97;87743;1282;77849;-62
2022/01/21 04:37:06;;;;;;;7.50;2.80;;;;;;;-1.73;73.50;99883.69;87726;1282;82108;-63
2022/01/21 04:39:18;;;;;;;6.00;2.40;;;;;;;-1.74;73.44;99870.86;87745;1282;100810;-62
2022/01/21 04:41:41;;;;;;;4.90;2.00;;;;;;;-1.74;73.52;99864.33;87596;1284;88234;-63
2022/01/21 04:48:39;;;;;;;5.50;2.10;;;;;;;-1.76;73.45;99880.09;87838;1283;80323;-73
2022/01/21 04:50:53;;;;;;;7.40;1.80;;;;;;;-1.79;73.65;99872.11;87817;1282;100011;-73
2022/01/21 04:53:03;;;;;;;6.10;2.00;;;;;;;-1.82;73.48;99884.19;87769;1282;88153;-63
2022/01/21 04:55:10;;;;;;;6.10;2.70;;;;;;;-1.83;73.59;99880.73;87839;1283;95038;-61
2022/01/21 04:57:16;;;;;;;6.00;2.10;;;;;;;-1.82;73.86;99882.09;87752;1283;81454;-62
2022/01/21 04:59:22;;;;;;;7.60;2.50;;;;;;;-1.77;73.76;99880.86;87858;1283;82124;-63
2022/01/21 05:01:28;;;;;;;4.00;1.50;;;;;;;-1.73;73.83;99883.83;87852;1283;100509;-63
2022/01/21 05:03:37;;;;;;;5.80;1.80;;;;;;;-1.69;73.90;99877.67;87843;1283;89249;-62
2022/01/21 05:05:46;;;;;;;4.80;2.20;;;;;;;-1.61;73.85;99877.20;87875;1283;95135;-62
2022/01/21 05:07:56;;;;;;;5.50;1.90;;;;;;;-1.55;74.01;99883.75;87845;1283;79317;-73
2022/01/21 05:10:06;;;;;;;4.30;2.40;;;;;;;-1.50;73.99;99884.55;87634;1284;80634;-72
2022/01/21 05:12:20;;;;;;;6.40;2.60;;;;;;;-1.49;73.88;99889.29;87875;1283;98772;-62
2022/01/21 05:14:42;;;;;;;;;;;;;;;-1.48;73.67;99895.56;87850;1283;87357;-62
2022/01/21 05:16:50;;;;;;;5.00;2.00;;;;;;;-1.53;73.88;99888.73;87845;1283;94218;-62
2022/01/21 05:18:56;;;;;;;6.60;3.20;;;;;;;-1.56;73.82;99896.20;87867;1283;77716;-63
2022/01/21 05:21:02;;;;;;;8.90;3.40;;;;;;;-1.58;73.87;99894.80;87747;1282;82577;-61
2022/01/21 05:23:07;;;;;;;9.80;3.00;;;;;;;-1.61;73.97;99892.36;87754;1282;97861;-71
2022/01/21 05:25:18;;;;;;;8.30;3.80;;;;;;;-1.62;73.78;99894.05;87845;1283;89368;-71
2022/01/21 05:27:25;;;;;;;8.00;3.80;;;;;;;-1.65;74.17;99899.96;87851;1283;95410;-71
2022/01/21 05:29:34;;;;;;;9.30;3.90;;;;;;;-1.68;73.92;99897.17;87749;1282;78688;-70
2022/01/21 05:31:40;;;;;;;16.50;6.90;;;;;;;-1.70;74.21;99906.20;87865;1283;81887;-71
2022/01/21 05:33:49;;;;;;;8.90;4.30;;;;;;;-1.72;74.05;99907.73;87734;1282;100361;-64
2022/01/21 05:35:55;;;;;;;6.90;3.80;;;;;;;-1.71;74.21;99907.17;87831;1283;89213;-63
2022/01/21 05:38:00;;;;;;;8.50;3.50;;;;;;;-1.70;74.18;99905.30;87710;1282;95242;-69
2022/01/21 05:40:13;;;;;;;4.90;2.40;;;;;;;-1.65;74.40;99905.64;87838;1283;83629;-70
2022/01/21 05:42:23;;;;;;;9.00;2.70;;;;;;;-1.60;74.29;99905.89;87866;1283;80535;-62
2022/01/21 05:47:03;;;;;;;6.50;3.40;;;;;;;-1.54;74.40;99914.98;87828;1283;89257;-63
2022/01/21 05:49:09;;;;;;;7.70;3.20;;;;;;;-1.52;74.53;99910.20;87853;1283;95133;-72
2022/01/21 05:51:16;;;;;;;6.50;2.70;;;;;;;-1.53;74.29;99914.45;87857;1283;78231;-71
2022/01/21 05:53:22;;;;;;;10.60;3.60;;;;;;;-1.56;74.29;99909.80;87874;1283;80827;-62
2022/01/21 05:55:28;;;;;;;7.70;2.70;;;;;;;-1.63;74.21;99912.64;87862;1283;100557;-63
2022/01/21 05:57:34;;;;;;;8.40;3.80;;;;;;;-1.71;74.43;99915.98;87860;1283;88046;-71
2022/01/21 05:59:41;;;;;;;7.10;2.60;;;;;;;-1.80;74.08;99915.44;87762;1282;94906;-72
2022/01/21 06:01:50;;;;;;;9.20;3.00;;;;;;;-1.89;74.29;99921.09;87859;1283;77413;-71
2022/01/21 06:03:56;;;;;;;6.60;3.00;;;;;;;-1.94;74.63;99925.60;87850;1283;81807;-62
2022/01/21 06:06:02;;;;;;;5.90;3.10;;;;;;;-1.96;74.59;99933.52;87585;1284;99331;-62
2022/01/21 06:08:09;;;;;;;8.30;2.90;;;;;;;-1.94;74.61;99928.08;87836;1283;88383;-71
2022/01/21 06:10:17;;;;;;;7.20;2.50;;;;;;;-1.90;74.87;99931.23;87859;1282;93408;-72
2022/01/21 06:12:26;;;;;;;6.00;2.90;;;;;;;-1.86;74.91;99935.02;87852;1283;79533;-63
2022/01/21 06:14:36;;;;;;;33.60;12.40;;;;;;;-1.83;75.04;99932.79;87761;1282;81223;-72
2022/01/21 06:16:46;;;;;;;25.60;9.30;;;;;;;-1.77;75.05;99932.52;87758;1282;98087;-72
2022/01/21 06:19:02;;;;;;;26.40;10.70;;;;;;;-1.72;75.14;99940.25;87779;1282;87865;-72
2022/01/21 06:21:12;;;;;;;46.90;18.10;;;;;;;-1.67;75.14;99938.61;87549;1286;93046;-63
2022/01/21 06:23:17;;;;;;;36.60;14.30;;;;;;;-1.67;75.24;99935.59;87904;1283;80124;-63
2022/01/21 06:25:26;;;;;;;39.30;15.70;;;;;;;-1.67;74.98;99944.95;87760;1282;80833;-64
2022/01/21 06:27:34;;;;;;;18.10;8.60;;;;;;;-1.70;75.24;99940.26;87841;1283;100240;-71
2022/01/21 06:29:40;;;;;;;16.60;8.30;;;;;;;-1.71;74.92;99942.50;87879;1283;87768;-71
2022/01/21 06:31:47;;;;;;;12.20;5.70;;;;;;;-1.77;75.19;99943.51;87846;1283;94780;-72
2022/01/21 06:33:54;;;;;;;12.30;5.90;;;;;;;-1.82;75.04;99944.70;87868;1283;79243;-62
2022/01/21 06:36:03;;;;;;;10.60;5.90;;;;;;;-1.84;75.28;99958.30;87867;1283;82609;-71
2022/01/21 06:38:12;;;;;;;6.10;4.20;;;;;;;-1.85;75.46;99959.30;87786;1282;100380;-69
2022/01/21 06:40:20;;;;;;;9.60;5.00;;;;;;;-1.82;75.46;99966.41;87524;1284;90007;-66
2022/01/21 06:42:27;;;;;;;9.80;4.00;;;;;;;-1.77;75.57;99970.64;87888;1283;93382;-71
2022/01/21 06:44:34;;;;;;;27.20;10.40;;;;;;;-1.71;75.59;99971.61;87753;1283;81195;-71
2022/01/21 06:46:44;;;;;;;17.90;6.30;;;;;;;-1.70;75.51;99965.83;87784;1282;83323;-67
2022/01/21 06:48:50;;;;;;;22.00;7.40;;;;;;;-1.68;75.73;99969.19;87850;1283;99667;-68
2022/01/21 06:50:59;;;;;;;18.80;7.40;;;;;;;-1.64;75.51;99969.95;87863;1283;89031;-69
2022/01/21 06:53:06;;;;;;;14.50;5.70;;;;;;;-1.61;75.60;99976.61;87892;1283;94202;-66
2022/01/21 06:55:16;;;;;;;23.30;9.30;;;;;;;-1.60;75.63;99974.56;87758;1283;77847;-63
2022/01/21 06:57:25;;;;;;;25.30;9.40;;;;;;;-1.59;75.62;99978.08;87873;1283;80463;-72
2022/01/21 06:59:30;;;;;;;12.40;6.00;;;;;;;-1.59;75.46;99977.70;87912;1283;100871;-70
2022/01/21 07:01:37;;;;;;;13.20;5.10;;;;;;;-1.58;75.45;99978.81;87858;1283;88808;-70
2022/01/21 07:03:46;;;;;;;8.50;4.20;;;;;;;-1.60;75.61;99973.16;87740;1284;96174;-64
2022/01/21 07:05:55;;;;;;;7.90;2.90;;;;;;;-1.58;75.30;99986.83;87861;1283;78604;-65
2022/01/21 07:08:05;;;;;;;9.00;4.20;;;;;;;-1.60;75.33;99989.77;87841;1283;82929;-71
2022/01/21 07:10:14;;;;;;;9.00;3.60;;;;;;;-1.62;75.47;99993.06;87771;1283;100071;-70
2022/01/21 07:12:23;;;;;;;10.30;4.40;;;;;;;-1.61;75.12;99992.31;87771;1283;88974;-72
2022/01/21 07:14:33;;;;;;;9.80;3.90;;;;;;;-1.63;75.43;99996.02;87764;1283;94487;-71
2022/01/21 07:16:42;;;;;;;6.80;3.40;;;;;;;-1.62;75.38;99998.42;87770;1283;79331;-72
2022/01/21 07:18:51;;;;;;;7.30;3.30;;;;;;;-1.63;75.13;100002.17;87808;1283;81240;-66
2022/01/21 07:21:00;;;;;;;7.60;3.00;;;;;;;-1.58;75.35;100005.50;87743;1283;100414;-63
2022/01/21 07:23:12;;;;;;;9.20;3.20;;;;;;;-1.44;75.32;100007.17;87922;1278;87534;-64
2022/01/21 07:25:20;;;;;;;7.50;3.40;;;;;;;-1.28;75.35;100005.30;87775;1283;96750;-75
2022/01/21 07:27:29;;;;;;;10.60;3.20;;;;;;;-0.85;75.31;100001.40;87662;1284;79665;-64
2022/01/21 07:29:44;;;;;;;6.30;3.10;;;;;;;0.07;75.54;99997.54;87788;1284;81269;-65
2022/01/21 07:31:54;;;;;;;8.30;4.10;;;;;;;1.37;75.20;99995.05;87523;1284;100975;-63
2022/01/21 07:34:05;;;;;;;10.90;4.20;;;;;;;2.58;74.15;99994.37;87840;1284;88488;-65
2022/01/21 07:36:13;;;;;;;8.00;3.90;;;;;;;3.62;73.23;99986.80;87850;1284;94083;-66
2022/01/21 07:38:20;;;;;;;8.70;3.80;;;;;;;4.34;71.59;99993.77;87839;1284;78049;-71
2022/01/21 07:40:32;;;;;;;6.60;3.20;;;;;;;5.00;70.40;99994.09;87865;1284;79728;-70
2022/01/21 07:42:43;;;;;;;;;;;;;;;5.53;68.59;99987.89;87845;1284;97845;-69
2022/01/21 07:44:53;;;;;;;5.70;2.90;;;;;;;5.88;68.08;99993.59;87857;1283;89177;-71
2022/01/21 07:47:00;;;;;;;4.90;2.30;;;;;;;6.34;67.48;99997.08;87830;1283;94825;-71
2022/01/21 07:49:07;;;;;;;4.40;2.00;;;;;;;6.74;65.31;99994.41;87866;1284;79609;-72
2022/01/21 07:51:17;;;;;;;6.50;3.40;;;;;;;6.99;63.97;99993.62;87844;1283;81878;-71
2022/01/21 07:53:27;;;;;;;3.50;2.40;;;;;;;7.24;64.48;100000.59;87856;1284;99181;-71
2022/01/21 07:55:50;;;;;;;6.40;2.90;;;;;;;7.74;64.33;99993.60;87875;1284;87637;-63
2022/01/21 07:58:01;;;;;;;;;;;;;;;8.14;63.06;99996.45;87851;1282;93251;-71
2022/01/21 08:00:13;;;;;;;6.20;3.10;;;;;;;8.15;59.43;99993.28;87846;1284;78395;-69
2022/01/21 08:02:25;;;;;;;4.80;3.00;;;;;;;8.21;60.49;99998.00;87841;1283;81406;-69
2022/01/21 08:04:40;;;;;;;5.90;2.80;;;;;;;8.26;59.32;100003.16;87823;1284;100840;-65
2022/01/21 08:06:54;;;;;;;5.00;2.70;;;;;;;8.57;58.20;100005.11;87519;1284;88230;-66
2022/01/21 08:09:05;;;;;;;4.70;2.50;;;;;;;8.43;58.72;100003.78;87776;1284;94420;-71
2022/01/21 08:11:18;;;;;;;6.70;3.10;;;;;;;8.94;58.84;100001.60;87510;1284;77502;-65
2022/01/21 08:13:31;;;;;;;7.40;2.70;;;;;;;8.84;57.63;99998.81;87545;1284;82038;-67
2022/01/21 08:15:42;;;;;;;6.10;2.60;;;;;;;8.26;57.36;100002.56;87839;1284;99728;-66
2022/01/21 08:17:52;;;;;;;5.70;2.80;;;;;;;8.45;57.76;100005.89;87875;1284;87274;-70
2022/01/21 08:20:02;;;;;;;5.30;2.90;;;;;;;8.76;57.23;100006.11;87839;1284;95216;-70
2022/01/21 08:22:13;;;;;;;4.70;2.80;;;;;;;9.06;56.13;100002.59;87508;1284;79699;-69
2022/01/21 08:24:20;;;;;;;3.80;2.40;;;;;;;8.40;56.48;100018.05;87877;1284;83108;-73
2022/01/21 08:26:29;;;;;;;5.30;2.80;;;;;;;7.39;56.29;100016.90;87868;1284;100241;-73
2022/01/21 08:28:40;;;;;;;5.80;2.80;;;;;;;6.60;55.95;100021.44;87816;1284;88492;-75
2022/01/21 08:30:47;;;;;;;7.30;3.00;;;;;;;5.93;57.14;100019.66;87799;1284;95871;-75
2022/01/21 08:32:55;;;;;;;8.00;3.00;;;;;;;5.61;57.64;100023.41;87870;1282;80618;-75
2022/01/21 08:35:03;;;;;;;6.40;2.70;;;;;;;5.21;57.38;100027.96;87584;1284;84647;-76
2022/01/21 08:37:22;;;;;;;5.10;2.50;;;;;;;4.75;57.34;100029.30;87540;1285;98355;-77
2022/01/21 08:39:30;;;;;;;5.90;2.60;;;;;;;4.21;58.34;100035.33;87830;1284;87246;-76
2022/01/21 08:41:38;;;;;;;5.90;2.80;;;;;;;3.99;58.65;100042.44;87848;1284;94913;-67
2022/01/21 08:43:50;;;;;;;8.00;3.00;;;;;;;3.51;58.93;100043.73;87912;1284;77327;-66
2022/01/21 08:46:00;;;;;;;8.00;3.20;;;;;;;3.29;59.40;100057.97;87561;1284;83693;-66
2022/01/21 08:48:07;;;;;;;7.00;3.30;;;;;;;3.15;59.75;100050.83;87859;1283;100319;-67
2022/01/21 08:50:23;;;;;;;5.10;2.60;;;;;;;2.92;60.00;100064.77;87851;1284;88612;-67
2022/01/21 08:52:37;;;;;;;6.40;2.30;;;;;;;2.68;60.40;100067.11;87852;1283;95688;-67
2022/01/21 08:54:46;;;;;;;;;;;;;;;2.54;60.65;100074.16;87857;1284;78337;-78
2022/01/21 08:56:57;;;;;;;4.60;2.60;;;;;;;2.43;61.14;100075.60;87855;1283;81428;-76
2022/01/21 08:59:07;;;;;;;7.80;2.90;;;;;;;2.35;61.42;100075.45;87834;1283;100881;-65
2022/01/21 09:01:22;;;;;;;7.50;2.60;;;;;;;2.29;61.43;100080.48;87819;1284;88039;-75
2022/01/21 09:03:46;;;;;;;8.60;3.00;;;;;;;2.24;61.39;100080.63;87751;1284;94520;-67
2022/01/21 09:06:03;;;;;;;5.60;3.00;;;;;;;2.04;61.59;100085.34;87764;1284;78178;-75
2022/01/21 09:08:30;;;;;;;5.40;2.90;;;;;;;1.93;62.07;100086.57;87803;1283;80799;-68
2022/01/21 09:10:38;;;;;;;6.60;2.30;;;;;;;1.78;62.19;100088.32;87869;1284;101318;-67
2022/01/21 09:12:46;;;;;;;6.80;2.50;;;;;;;1.72;62.50;100085.64;87802;1283;89376;-69
2022/01/21 09:14:57;;;;;;;5.10;2.20;;;;;;;1.68;62.81;100087.45;87857;1284;95832;-66
2022/01/21 09:17:06;;;;;;;5.50;2.20;;;;;;;1.56;62.90;100092.45;87832;1284;78831;-70
2022/01/21 09:19:15;;;;;;;5.90;2.50;;;;;;;1.40;63.31;100091.68;87903;1284;82006;-72
2022/01/21 09:21:26;;;;;;;8.70;3.10;;;;;;;1.35;63.55;100090.52;87856;1284;99688;-67
2022/01/21 09:23:36;;;;;;;7.90;3.50;;;;;;;1.36;63.65;100092.89;87839;1284;89348;-75
2022/01/21 09:25:45;;;;;;;8.10;4.20;;;;;;;1.34;63.72;100093.48;87823;1283;93417;-73
2022/01/21 09:27:58;;;;;;;7.20;2.90;;;;;;;1.23;63.80;100094.88;87855;1283;78975;-67
2022/01/21 09:30:11;;;;;;;7.90;4.00;;;;;;;1.29;64.03;100091.06;87850;1283;82266;-68
2022/01/21 09:32:18;;;;;;;7.60;3.50;;;;;;;1.30;64.17;100089.23;87828;1283;97713;-66
2022/01/21 09:34:25;;;;;;;7.80;3.90;;;;;;;1.28;64.22;100095.24;87853;1283;88653;-73
2022/01/21 09:36:32;;;;;;;7.20;3.40;;;;;;;1.18;64.26;100092.93;87816;1283;93774;-76
2022/01/21 09:38:42;;;;;;;6.40;3.50;;;;;;;1.18;64.44;100096.49;87571;1284;78367;-74
2022/01/21 09:40:52;;;;;;;8.40;3.60;;;;;;;1.25;64.63;100095.16;87882;1283;81726;-72
2022/01/21 09:43:01;;;;;;;13.90;3.10;;;;;;;1.24;64.49;100093.30;87841;1283;100146;-66
2022/01/21 09:46:07;;;;;;;8.70;3.20;;;;;;;1.14;64.37;100094.52;87782;1282;86888;-64
2022/01/21 09:48:36;;;;;;;7.20;2.50;;;;;;;1.03;64.41;100085.48;87543;1284;94445;-74
2022/01/21 09:51:26;;;;;;;7.10;2.60;;;;;;;1.02;64.57;100090.83;87781;1283;77331;-73
2022/01/21 09:54:07;;;;;;;8.00;2.70;;;;;;;1.15;64.95;100092.30;87131;1287;80649;-64
2022/01/21 09:56:16;;;;;;;9.90;2.40;;;;;;;1.22;64.50;100088.48;87305;1287;98870;-66
2022/01/21 09:58:28;;;;;;;5.50;2.80;;;;;;;1.16;64.52;100090.13;87283;1287;88236;-75
2022/01/21 10:00:42;;;;;;;6.90;2.80;;;;;;;1.18;64.59;100089.73;87294;1287;93726;-73
2022/01/21 10:02:51;;;;;;;6.50;2.70;;;;;;;1.23;64.75;100086.66;87306;1287;77423;-74
2022/01/21 10:05:00;;;;;;;7.90;2.90;;;;;;;1.29;64.69;100071.77;87317;1287;81919;-74
2022/01/21 10:07:10;;;;;;;6.70;2.50;;;;;;;1.27;64.65;100071.19;87332;1287;99281;-75
2022/01/21 10:09:21;;;;;;;5.20;2.10;;;;;;;1.28;64.53;100063.67;87276;1287;89419;-65
2022/01/21 10:11:27;;;;;;;6.80;2.20;;;;;;;1.52;64.35;100065.20;87274;1287;93310;-65
2022/01/21 10:13:37;;;;;;;5.70;2.20;;;;;;;2.05;64.39;100058.43;87325;1287;78313;-67
2022/01/21 10:15:46;;;;;;;;;;;;;;;2.85;63.79;100066.34;87330;1287;82474;-76
2022/01/21 10:18:17;;;;;;;4.80;2.50;;;;;;;3.34;63.19;100067.09;87305;1287;100663;-73
2022/01/21 10:20:25;;;;;;;6.00;2.20;;;;;;;4.14;62.41;100055.10;87250;1287;91310;-68
2022/01/21 10:22:36;;;;;;;4.10;2.10;;;;;;;4.52;61.22;100052.34;87308;1287;93425;-66
2022/01/21 10:24:59;;;;;;;4.80;2.40;;;;;;;4.60;61.27;100048.73;87274;1287;78386;-68
2022/01/21 10:27:22;;;;;;;4.30;1.70;;;;;;;5.02;60.59;100042.68;87315;1287;81767;-75
2022/01/21 10:29:39;;;;;;;5.30;1.90;;;;;;;4.95;59.37;100049.81;87161;1288;100994;-76
2022/01/21 10:32:00;;;;;;;4.20;1.80;;;;;;;4.65;59.03;100042.52;87442;1284;87363;-77
2022/01/21 10:34:07;;;;;;;5.80;2.00;;;;;;;4.31;59.44;100045.22;87798;1283;95688;-77
2022/01/21 10:36:27;;;;;;;6.60;2.20;;;;;;;4.13;59.37;100045.81;87859;1283;78588;-75
2022/01/21 10:39:06;;;;;;;7.50;2.80;;;;;;;3.78;59.41;100039.80;87469;1284;83877;-67
2022/01/21 10:41:51;;;;;;;6.70;2.40;;;;;;;3.50;59.51;100042.96;87751;1284;99609;-67
2022/01/21 10:44:32;;;;;;;6.50;2.60;;;;;;;3.30;59.76;100039.84;87866;1283;88393;-67
2022/01/21 10:47:32;;;;;;;8.90;3.20;;;;;;;3.12;60.11;100048.77;87533;1285;94342;-75
2022/01/21 10:50:14;;;;;;;6.80;2.80;;;;;;;2.80;60.33;100046.27;87581;1284;78812;-75
2022/01/21 10:52:59;;;;;;;6.60;2.90;;;;;;;2.60;60.42;100048.20;87873;1283;82368;-71